sensor_id;sensor_type;location;lat;lon;timestamp;P1;durP1;ratioP1;P2;durP2;ratioP2
57889;SDS011;43707;50.184;18.966;2023-06-01T18:36:57;1.00;;;0.30;;
57889;SDS011;43707;50.184;18.966;2023-06-01T18:39:22;1.30;;;0.40;;
57889;SDS011;43707;50.184;18.966;2023-06-01T18:41:47;0.20;;;0.20;;
57889;SDS011;43707;50.184;18.966;2023-06-01T18:44:13;0.30;;;0.20;;
57889;SDS011;43707;50.184;18.966;2023-06-01T18:46:38;0.50;;;0.30;;
57889;SDS011;43707;50.184;18.966;2023-06-01T18:49:04;1.80;;;0.40;;
57889;SDS011;43707;50.184;18.966;2023-06-01T18:51:30;0.60;;;0.40;;
57889;SDS011;43707;50.184;18.966;2023-06-01T18:53:56;0.50;;;0.40;;
57889;SDS011;43707;50.184;18.966;2023-06-01T18:56:22;0.30;;;0.30;;
57889;SDS011;43707;50.184;18.966;2023-06-01T18:58:47;0.40;;;0.30;;
57889;SDS011;43707;50.184;18.966;2023-06-01T19:01:13;1.00;;;0.50;;
57889;SDS011;43707;50.184;18.966;2023-06-01T19:03:38;0.60;;;0.40;;
57889;SDS011;43707;50.184;18.966;2023-06-01T19:06:04;0.40;;;0.40;;
57889;SDS011;43707;50.184;18.966;2023-06-01T19:08:30;1.00;;;0.30;;
57889;SDS011;43707;50.184;18.966;2023-06-01T19:11:03;0.60;;;0.30;;
57889;SDS011;43707;50.184;18.966;2023-06-01T19:16:04;0.30;;;0.20;;
57889;SDS011;43707;50.184;18.966;2023-06-01T19:18:36;1.20;;;0.20;;
57889;SDS011;43707;50.184;18.966;2023-06-01T19:21:14;0.20;;;0.20;;
57889;SDS011;43707;50.184;18.966;2023-06-01T19:26:32;0.40;;;0.20;;
57889;SDS011;43707;50.184;18.966;2023-06-01T19:28:59;0.20;;;0.20;;
57889;SDS011;43707;50.184;18.966;2023-06-01T19:31:32;0.20;;;0.20;;
57889;SDS011;43707;50.184;18.966;2023-06-01T19:33:58;1.50;;;0.20;;
57889;SDS011;43707;50.184;18.966;2023-06-01T19:39:08;0.20;;;0.20;;
57889;SDS011;43707;50.184;18.966;2023-06-01T19:41:33;0.60;;;0.20;;
57889;SDS011;43707;50.184;18.966;2023-06-01T19:44:02;0.40;;;0.30;;
57889;SDS011;43707;50.184;18.966;2023-06-01T19:46:28;0.50;;;0.50;;
57889;SDS011;43707;50.184;18.966;2023-06-01T19:48:54;0.40;;;0.30;;
57889;SDS011;43707;50.184;18.966;2023-06-01T19:51:23;0.70;;;0.40;;
57889;SDS011;43707;50.184;18.966;2023-06-01T19:53:49;0.40;;;0.40;;
57889;SDS011;43707;50.184;18.966;2023-06-01T19:58:55;1.10;;;0.40;;
57889;SDS011;43707;50.184;18.966;2023-06-01T20:01:21;0.40;;;0.40;;
57889;SDS011;43707;50.184;18.966;2023-06-01T20:03:48;0.70;;;0.60;;
57889;SDS011;43707;50.184;18.966;2023-06-01T20:06:13;0.40;;;0.40;;
57889;SDS011;43707;50.184;18.966;2023-06-01T20:08:42;1.30;;;0.70;;
57889;SDS011;43707;50.184;18.966;2023-06-01T20:11:07;0.50;;;0.50;;
57889;SDS011;43707;50.184;18.966;2023-06-01T20:13:34;0.70;;;0.40;;
57889;SDS011;43707;50.184;18.966;2023-06-01T20:16:00;0.40;;;0.40;;
57889;SDS011;43707;50.184;18.966;2023-06-01T20:18:26;0.50;;;0.50;;
57889;SDS011;43707;50.184;18.966;2023-06-01T20:20:51;0.40;;;0.40;;
57889;SDS011;43707;50.184;18.966;2023-06-01T20:23:16;0.40;;;0.40;;
57889;SDS011;43707;50.184;18.966;2023-06-01T20:25:43;0.40;;;0.40;;
57889;SDS011;43707;50.184;18.966;2023-06-01T20:28:10;0.30;;;0.30;;
57889;SDS011;43707;50.184;18.966;2023-06-01T20:33:30;1.60;;;0.40;;
57889;SDS011;43707;50.184;18.966;2023-06-01T20:35:59;0.70;;;0.70;;
57889;SDS011;43707;50.184;18.966;2023-06-01T20:38:26;1.20;;;0.80;;
57889;SDS011;43707;50.184;18.966;2023-06-01T20:43:21;1.20;;;1.10;;
57889;SDS011;43707;50.184;18.966;2023-06-01T20:46:00;1.00;;;0.90;;
57889;SDS011;43707;50.184;18.966;2023-06-01T20:53:38;1.20;;;0.80;;
57889;SDS011;43707;50.184;18.966;2023-06-01T20:56:04;0.60;;;0.60;;
57889;SDS011;43707;50.184;18.966;2023-06-01T20:58:29;1.10;;;0.60;;
57889;SDS011;43707;50.184;18.966;2023-06-01T21:00:55;0.80;;;0.70;;
57889;SDS011;43707;50.184;18.966;2023-06-01T21:03:20;5.50;;;0.80;;
57889;SDS011;43707;50.184;18.966;2023-06-01T21:05:47;1.70;;;1.40;;
57889;SDS011;43707;50.184;18.966;2023-06-01T21:08:13;1.40;;;1.00;;
57889;SDS011;43707;50.184;18.966;2023-06-01T21:10:39;3.00;;;1.70;;
57889;SDS011;43707;50.184;18.966;2023-06-01T21:13:05;2.70;;;2.20;;
57889;SDS011;43707;50.184;18.966;2023-06-01T21:15:30;4.60;;;1.90;;
57889;SDS011;43707;50.184;18.966;2023-06-01T21:17:56;3.70;;;2.10;;
57889;SDS011;43707;50.184;18.966;2023-06-01T21:20:21;3.60;;;1.80;;
57889;SDS011;43707;50.184;18.966;2023-06-01T21:22:47;2.20;;;1.70;;
57889;SDS011;43707;50.184;18.966;2023-06-01T21:25:12;3.30;;;2.20;;
57889;SDS011;43707;50.184;18.966;2023-06-01T21:27:38;2.80;;;2.20;;
57889;SDS011;43707;50.184;18.966;2023-06-01T21:30:04;3.80;;;1.90;;
57889;SDS011;43707;50.184;18.966;2023-06-01T21:32:30;3.50;;;1.70;;
57889;SDS011;43707;50.184;18.966;2023-06-01T21:34:55;3.00;;;2.20;;
57889;SDS011;43707;50.184;18.966;2023-06-01T21:37:20;6.50;;;2.20;;
57889;SDS011;43707;50.184;18.966;2023-06-01T21:39:46;7.90;;;2.10;;
57889;SDS011;43707;50.184;18.966;2023-06-01T21:42:11;2.80;;;1.70;;
57889;SDS011;43707;50.184;18.966;2023-06-01T21:44:37;5.30;;;2.10;;
57889;SDS011;43707;50.184;18.966;2023-06-01T21:47:02;2.30;;;1.70;;
57889;SDS011;43707;50.184;18.966;2023-06-01T21:49:27;4.50;;;1.90;;
57889;SDS011;43707;50.184;18.966;2023-06-01T21:51:53;2.40;;;1.50;;
57889;SDS011;43707;50.184;18.966;2023-06-01T21:54:18;2.10;;;1.50;;
57889;SDS011;43707;50.184;18.966;2023-06-01T21:56:44;3.20;;;1.60;;
57889;SDS011;43707;50.184;18.966;2023-06-01T21:59:09;2.20;;;1.00;;
57889;SDS011;43707;50.184;18.966;2023-06-01T22:01:38;2.20;;;1.00;;
57889;SDS011;43707;50.184;18.966;2023-06-01T22:04:03;1.20;;;0.90;;
57889;SDS011;43707;50.184;18.966;2023-06-01T22:06:28;3.50;;;0.60;;
57889;SDS011;43707;50.184;18.966;2023-06-01T22:08:54;9.30;;;1.00;;
57889;SDS011;43707;50.184;18.966;2023-06-01T22:11:19;1.60;;;0.60;;
57889;SDS011;43707;50.184;18.966;2023-06-01T22:13:46;9.00;;;0.70;;
57889;SDS011;43707;50.184;18.966;2023-06-01T22:16:13;0.80;;;0.50;;
57889;SDS011;43707;50.184;18.966;2023-06-01T22:18:39;1.20;;;0.60;;
57889;SDS011;43707;50.184;18.966;2023-06-01T22:21:04;0.70;;;0.60;;
57889;SDS011;43707;50.184;18.966;2023-06-01T22:23:29;0.60;;;0.50;;
57889;SDS011;43707;50.184;18.966;2023-06-01T22:25:55;1.90;;;0.70;;
57889;SDS011;43707;50.184;18.966;2023-06-01T22:28:20;4.20;;;1.10;;
57889;SDS011;43707;50.184;18.966;2023-06-01T22:30:46;2.50;;;1.20;;
57889;SDS011;43707;50.184;18.966;2023-06-01T22:33:11;2.60;;;1.10;;
57889;SDS011;43707;50.184;18.966;2023-06-01T22:35:36;0.90;;;0.60;;
57889;SDS011;43707;50.184;18.966;2023-06-01T22:38:02;1.40;;;1.00;;
57889;SDS011;43707;50.184;18.966;2023-06-01T22:40:27;1.20;;;0.90;;
57889;SDS011;43707;50.184;18.966;2023-06-01T22:42:53;1.30;;;1.00;;
57889;SDS011;43707;50.184;18.966;2023-06-01T22:45:18;2.20;;;1.10;;
57889;SDS011;43707;50.184;18.966;2023-06-01T22:47:44;1.80;;;1.20;;
57889;SDS011;43707;50.184;18.966;2023-06-01T22:50:09;2.50;;;1.10;;
57889;SDS011;43707;50.184;18.966;2023-06-01T22:52:36;1.40;;;1.20;;
57889;SDS011;43707;50.184;18.966;2023-06-01T22:55:03;1.30;;;0.90;;
57889;SDS011;43707;50.184;18.966;2023-06-01T22:57:31;1.00;;;0.80;;
57889;SDS011;43707;50.184;18.966;2023-06-01T22:59:57;1.50;;;1.10;;
57889;SDS011;43707;50.184;18.966;2023-06-01T23:02:22;1.80;;;1.10;;
57889;SDS011;43707;50.184;18.966;2023-06-01T23:04:48;1.60;;;1.10;;
57889;SDS011;43707;50.184;18.966;2023-06-01T23:07:13;0.70;;;0.70;;
57889;SDS011;43707;50.184;18.966;2023-06-01T23:09:39;1.10;;;0.70;;
57889;SDS011;43707;50.184;18.966;2023-06-01T23:12:05;0.80;;;0.50;;
57889;SDS011;43707;50.184;18.966;2023-06-01T23:14:31;2.40;;;0.80;;
57889;SDS011;43707;50.184;18.966;2023-06-01T23:17:01;5.70;;;0.90;;
57889;SDS011;43707;50.184;18.966;2023-06-01T23:19:31;1.70;;;0.70;;
57889;SDS011;43707;50.184;18.966;2023-06-01T23:22:01;1.30;;;0.90;;
57889;SDS011;43707;50.184;18.966;2023-06-01T23:24:30;1.80;;;0.90;;
57889;SDS011;43707;50.184;18.966;2023-06-01T23:27:00;2.10;;;0.80;;
57889;SDS011;43707;50.184;18.966;2023-06-01T23:29:26;1.40;;;0.80;;
57889;SDS011;43707;50.184;18.966;2023-06-01T23:31:52;1.40;;;0.80;;
57889;SDS011;43707;50.184;18.966;2023-06-01T23:34:18;1.30;;;1.00;;
57889;SDS011;43707;50.184;18.966;2023-06-01T23:36:43;1.00;;;0.80;;
57889;SDS011;43707;50.184;18.966;2023-06-01T23:39:10;3.30;;;1.00;;
57889;SDS011;43707;50.184;18.966;2023-06-01T23:41:36;2.00;;;0.60;;
57889;SDS011;43707;50.184;18.966;2023-06-01T23:44:03;1.20;;;1.00;;
57889;SDS011;43707;50.184;18.966;2023-06-01T23:46:29;0.60;;;0.60;;
57889;SDS011;43707;50.184;18.966;2023-06-01T23:48:57;1.10;;;0.70;;
57889;SDS011;43707;50.184;18.966;2023-06-01T23:51:22;1.60;;;0.70;;
57889;SDS011;43707;50.184;18.966;2023-06-01T23:53:48;2.10;;;1.00;;
57889;SDS011;43707;50.184;18.966;2023-06-01T23:56:13;0.70;;;0.60;;
57889;SDS011;43707;50.184;18.966;2023-06-01T23:58:39;1.00;;;0.70;;
